Aeroporto :
LOGIN :

Iscrizione | Disclaimer

   EN    FR    IT 

 










Sommario :    VFR   VFR Marginale   IFR   IFR Intensivo   IFR Molto Intensivo
Visibilità : 
Base nubi : 
>= 8 km
>= 3000ft
5 / 8 km
1000 / 3000 ft
1500m / 5 km
500 / 1000 ft
800 / 1500m
200 / 500 ft
< 800m
< 200 ft
Simboli :   Temporali  Nebbia  Neve Forte  Precipitazioni Forti  Vento > 20 kt
SIGMETs :   Varie  Temporali  Ghiacco  Turbolenza  Onda orograficha  Ceneri Vulcaniche






- Altitudine del aeroporto : 55 ft
- Codice IATA : DSA


EGCN - Robin Hood Doncaster Sheffield

ULTIMO METAR :
  • 061820Z 34017KT 9999 FEW025 SCT031 BKN038 12/07 Q1000

METARs OBSOLETI :
  • 061750Z 34018KT 9999 FEW033 SCT046 13/06 Q0999
  • 061720Z 35015KT 9999 FEW027 SCT036 14/08 Q0998
  • 061650Z 34016KT 9999 FEW049 13/08 Q0998
  • 061620Z 35020G32KT 8000 VCSH FEW022 SCT028 BKN041 12/09 Q0998 RERA
  • 061550Z 35016KT 9999 VCSH FEW025 SCT035TCU 13/08 Q0997

TAF TAF EGCN
Valido dal 06 a 18 ore il 07 a 18 ore UTC


061702Z 0618/0718 35018G28KT 9999 SCT035
BECMG 0618/0621 33008KT
TEMPO 0618/0620 7000 SHRA
TEMPO 0703/0718 6000 RA BKN012



MetMap, La meteo Aeronautica in un colpo d'occhio ! - Copyright ORBIFLY Dicembre 2007 - Disclaimer

ORBIFLY MET'MAP TEAM :

Programmazione e sviluppo : Alexandra Zaïnal
Concezione : Baudouin d'Aumeries
Aiuto per la programmazione : Marc-Olivier Méhu
Supporto tecnico e logistico : Manuel Goepfert
Aiuto per la traduzione : Arnaldo La Scala

Contatto : metmap@orbifly.com




FONTI E CREDITI :

   NOAA